Time;durP1;ratioP1;P1;durP2;ratioP2;P2;SDS_P1;SDS_P2;PMS_P1;PMS_P2;Temp;Humidity;BMP_temperature;BMP_pressure;BME280_temperature;BME280_humidity;BME280_pressure;Samples;Min_cycle;Max_cycle;Signal;HPM_P1;HPM_P2
2023/03/19 00:02:36;;;;;;;30.40;17.00;;;8.70;99.90;;;;;;5082695;28;20601;-61
2023/03/19 00:05:25;;;;;;;33.85;17.15;;;8.70;99.90;;;;;;5080747;28;20664;-62
2023/03/19 00:08:14;;;;;;;32.25;17.52;;;8.70;99.90;;;;;;5083139;27;20228;-62
2023/03/19 00:11:07;;;;;;;29.55;16.75;;;8.70;99.90;;;;;;5084605;28;20732;-60
2023/03/19 00:13:56;;;;;;;31.48;17.30;;;8.70;99.90;;;;;;5083537;28;20737;-60
2023/03/19 00:16:46;;;;;;;26.08;15.85;;;8.60;99.90;;;;;;5083112;28;20567;-61
2023/03/19 00:19:35;;;;;;;28.38;16.60;;;8.60;99.90;;;;;;5081484;28;20320;-64
2023/03/19 00:22:24;;;;;;;30.17;17.35;;;8.60;99.90;;;;;;5082960;28;20226;-62
2023/03/19 00:25:13;;;;;;;34.30;17.33;;;8.60;99.90;;;;;;5085093;28;20614;-59
2023/03/19 00:28:02;;;;;;;31.73;16.73;;;8.50;99.90;;;;;;5095095;28;20235;-63
2023/03/19 00:30:51;;;;;;;29.80;17.10;;;8.60;99.90;;;;;;5093910;28;20230;-63
2023/03/19 00:33:41;;;;;;;31.80;17.02;;;8.50;99.90;;;;;;5086499;28;20381;-61
2023/03/19 00:36:31;;;;;;;32.22;17.90;;;8.50;99.90;;;;;;5079281;28;20315;-62
2023/03/19 00:39:20;;;;;;;33.20;17.83;;;8.50;99.90;;;;;;5079249;28;20555;-62
2023/03/19 00:42:09;;;;;;;34.05;17.38;;;8.50;99.90;;;;;;5081638;28;20235;-63
2023/03/19 00:44:58;;;;;;;31.63;17.73;;;8.50;99.90;;;;;;5077534;28;20293;-62
2023/03/19 00:47:47;;;;;;;35.50;17.53;;;8.40;99.90;;;;;;5090760;27;20521;-62
2023/03/19 00:50:37;;;;;;;28.48;17.17;;;8.40;99.90;;;;;;5084785;28;20231;-63
2023/03/19 00:53:26;;;;;;;33.47;18.30;;;8.30;99.90;;;;;;5075239;28;20234;-65
2023/03/19 00:56:17;;;;;;;34.00;18.33;;;8.30;99.90;;;;;;5095282;28;20223;-63
2023/03/19 00:59:07;;;;;;;32.58;18.67;;;8.30;99.90;;;;;;5099506;28;20227;-65
2023/03/19 01:01:55;;;;;;;33.15;17.52;;;8.30;99.90;;;;;;5082782;28;20241;-64
2023/03/19 01:04:44;;;;;;;32.45;16.63;;;8.30;99.90;;;;;;5074299;28;20222;-68
2023/03/19 01:07:35;;;;;;;34.47;17.98;;;8.30;99.90;;;;;;5083622;28;20284;-65
2023/03/19 01:10:25;;;;;;;30.20;16.97;;;8.10;99.90;;;;;;5076637;28;20223;-66
2023/03/19 01:13:14;;;;;;;32.55;17.20;;;8.10;99.90;;;;;;5107549;27;20308;-63
2023/03/19 01:16:03;;;;;;;30.08;17.00;;;8.20;99.90;;;;;;5074856;28;20229;-63
2023/03/19 01:18:52;;;;;;;29.98;17.13;;;8.20;99.90;;;;;;5076554;28;20229;-62
2023/03/19 01:21:44;;;;;;;29.27;16.55;;;8.20;99.90;;;;;;5081181;28;20230;-63
2023/03/19 01:24:37;;;;;;;30.05;16.80;;;8.20;99.90;;;;;;5090898;27;20280;-61
2023/03/19 01:27:26;;;;;;;32.57;17.27;;;8.20;99.90;;;;;;5090025;28;20222;-62
2023/03/19 01:30:15;;;;;;;31.48;17.67;;;8.10;99.90;;;;;;5078779;28;20365;-62
2023/03/19 01:33:32;;;;;;;32.35;17.45;;;8.10;99.90;;;;;;5059415;28;20302;-61
2023/03/19 01:36:24;;;;;;;30.45;16.70;;;8.00;99.90;;;;;;5091252;27;20737;-63
2023/03/19 01:39:25;;;;;;;34.53;17.50;;;8.10;99.90;;;;;;5093082;28;20299;-62
2023/03/19 01:42:16;;;;;;;32.07;17.70;;;8.10;99.90;;;;;;5090418;28;20234;-62
2023/03/19 01:45:36;;;;;;;29.93;16.33;;;8.20;99.90;;;;;;5072757;28;20334;-62
2023/03/19 01:48:50;;;;;;;33.87;17.07;;;8.20;99.90;;;;;;5079406;28;20227;-64
2023/03/19 01:51:43;;;;;;;29.13;16.35;;;8.20;99.90;;;;;;5080293;28;20355;-63
2023/03/19 01:54:45;;;;;;;31.92;16.65;;;8.10;99.90;;;;;;5070163;28;20234;-63
2023/03/19 01:57:54;;;;;;;30.57;16.10;;;8.10;99.90;;;;;;5075208;28;20226;-62
2023/03/19 02:01:02;;;;;;;32.97;17.30;;;8.00;99.90;;;;;;5070436;28;20332;-62
2023/03/19 02:03:53;;;;;;;29.40;16.17;;;8.00;99.90;;;;;;5086133;28;20350;-63
2023/03/19 02:06:48;;;;;;;30.93;17.27;;;8.00;99.90;;;;;;5076263;28;20761;-65
2023/03/19 02:09:39;;;;;;;34.70;18.13;;;8.00;99.90;;;;;;5079988;28;20241;-62
2023/03/19 02:12:29;;;;;;;31.83;17.10;;;8.00;99.90;;;;;;5079856;28;20223;-63
2023/03/19 02:15:20;;;;;;;27.45;16.60;;;8.10;99.90;;;;;;5076962;28;20320;-63
2023/03/19 02:18:10;;;;;;;33.30;17.20;;;8.10;99.90;;;;;;5075524;28;20242;-62
2023/03/19 02:21:06;;;;;;;31.10;16.00;;;8.00;99.90;;;;;;5074620;28;20223;-62
2023/03/19 02:24:02;;;;;;;29.10;17.10;;;8.00;99.90;;;;;;5082215;28;20258;-61
2023/03/19 02:27:15;;;;;;;30.30;16.35;;;8.00;99.90;;;;;;5077073;28;20974;-62
2023/03/19 02:30:24;;;;;;;27.40;16.87;;;7.90;99.90;;;;;;5074305;28;20222;-63
2023/03/19 02:33:14;;;;;;;31.90;16.17;;;8.00;99.90;;;;;;5075935;28;20304;-63
2023/03/19 02:36:06;;;;;;;30.30;16.87;;;7.90;99.90;;;;;;5093272;28;20226;-64
2023/03/19 02:38:57;;;;;;;32.77;16.20;;;7.90;99.90;;;;;;5080129;28;20234;-63
2023/03/19 02:41:47;;;;;;;28.40;16.50;;;7.90;99.90;;;;;;5074265;28;20258;-64
2023/03/19 02:44:37;;;;;;;30.80;16.07;;;7.90;99.90;;;;;;5077847;28;20234;-62
2023/03/19 02:47:27;;;;;;;29.97;16.77;;;8.00;99.90;;;;;;5091594;28;20213;-64
2023/03/19 02:50:15;;;;;;;31.13;16.33;;;7.90;99.90;;;;;;5080355;28;20283;-65
2023/03/19 02:53:04;;;;;;;28.30;16.40;;;7.90;99.90;;;;;;5073760;28;20595;-69
2023/03/19 02:55:53;;;;;;;30.87;16.27;;;7.90;99.90;;;;;;5095159;28;20231;-65
2023/03/19 02:58:42;;;;;;;28.67;16.27;;;7.80;99.90;;;;;;5081470;28;21202;-64
2023/03/19 03:01:33;;;;;;;26.80;16.30;;;7.70;99.90;;;;;;5081134;28;20230;-64
2023/03/19 03:04:22;;;;;;;29.37;16.73;;;7.70;99.90;;;;;;5084671;28;20360;-64
2023/03/19 03:07:11;;;;;;;27.33;15.37;;;7.70;99.90;;;;;;5082836;28;20223;-64
2023/03/19 03:10:00;;;;;;;32.00;16.93;;;7.70;99.90;;;;;;5086944;27;20315;-64
2023/03/19 03:12:48;;;;;;;32.23;16.20;;;7.70;99.90;;;;;;5085290;28;20223;-65
2023/03/19 03:15:37;;;;;;;29.47;16.43;;;7.70;99.90;;;;;;5086959;28;20689;-64
2023/03/19 03:18:28;;;;;;;34.80;16.60;;;7.70;99.90;;;;;;5086839;28;20224;-63
2023/03/19 03:21:18;;;;;;;28.20;16.10;;;7.70;99.90;;;;;;5084790;28;20905;-64
2023/03/19 03:24:12;;;;;;;27.87;15.13;;;7.70;99.90;;;;;;5081656;28;20219;-63
2023/03/19 03:27:01;;;;;;;29.00;16.97;;;7.70;99.90;;;;;;5088605;28;20717;-63
2023/03/19 03:29:50;;;;;;;29.77;16.30;;;7.70;99.90;;;;;;5083266;28;20219;-63
2023/03/19 03:32:40;;;;;;;29.03;17.03;;;7.70;99.90;;;;;;5099022;28;20223;-63
2023/03/19 03:35:30;;;;;;;26.70;15.97;;;7.70;99.90;;;;;;5099651;27;20291;-64
2023/03/19 03:38:19;;;;;;;31.37;16.87;;;7.70;99.90;;;;;;5081012;28;20325;-66
2023/03/19 03:41:08;;;;;;;30.50;15.13;;;7.70;99.90;;;;;;5080041;28;20250;-64
2023/03/19 03:43:57;;;;;;;29.17;17.07;;;7.70;99.90;;;;;;5085321;28;20676;-63
2023/03/19 03:46:46;;;;;;;28.67;16.30;;;7.80;99.90;;;;;;5080390;28;20226;-66
2023/03/19 03:49:35;;;;;;;30.87;16.63;;;7.60;99.90;;;;;;5079252;28;20235;-65
2023/03/19 03:52:30;;;;;;;30.37;16.53;;;7.60;99.90;;;;;;5084225;28;20243;-66
2023/03/19 03:55:18;;;;;;;28.47;16.33;;;7.60;99.90;;;;;;5095900;28;20227;-65
2023/03/19 03:58:07;;;;;;;28.10;16.87;;;7.50;99.90;;;;;;5097156;28;20220;-65
2023/03/19 04:00:56;;;;;;;42.37;17.27;;;7.40;99.90;;;;;;5080200;28;20268;-64
2023/03/19 04:03:45;;;;;;;29.33;16.27;;;7.50;99.90;;;;;;5096696;27;20283;-62
2023/03/19 04:06:34;;;;;;;30.23;17.13;;;7.30;99.90;;;;;;5082141;28;20684;-63
2023/03/19 04:09:35;;;;;;;30.13;16.53;;;7.30;99.90;;;;;;5079195;28;20241;-64
2023/03/19 04:12:23;;;;;;;30.47;17.20;;;7.30;99.90;;;;;;5081525;28;20230;-67
2023/03/19 04:15:13;;;;;;;31.23;16.77;;;7.20;99.90;;;;;;5081977;28;20254;-64
2023/03/19 04:18:09;;;;;;;32.60;16.00;;;7.10;99.90;;;;;;5082434;28;20243;-62
2023/03/19 04:20:58;;;;;;;31.10;17.10;;;7.20;99.90;;;;;;5080663;28;20301;-63
2023/03/19 04:23:47;;;;;;;32.63;16.47;;;7.30;99.90;;;;;;5075672;28;20237;-63
2023/03/19 04:26:37;;;;;;;31.47;16.67;;;7.10;99.90;;;;;;5064897;28;20234;-62
2023/03/19 04:29:26;;;;;;;29.80;16.57;;;7.00;99.90;;;;;;5076786;28;20273;-65
2023/03/19 04:32:15;;;;;;;32.50;17.00;;;7.10;99.90;;;;;;5091508;28;20238;-64
2023/03/19 04:35:05;;;;;;;31.70;17.37;;;7.10;99.90;;;;;;5079917;28;20351;-65
2023/03/19 04:37:54;;;;;;;34.10;17.67;;;7.00;99.90;;;;;;5081334;28;20227;-64
2023/03/19 04:40:42;;;;;;;31.10;17.10;;;7.00;99.90;;;;;;5080673;28;20219;-63
2023/03/19 04:43:33;;;;;;;30.53;16.60;;;7.10;99.90;;;;;;5078241;28;20754;-63
2023/03/19 04:46:24;;;;;;;31.73;17.80;;;7.00;99.90;;;;;;5074948;28;20315;-64
2023/03/19 04:49:13;;;;;;;31.73;17.17;;;7.00;99.90;;;;;;5080459;28;20237;-64
2023/03/19 04:52:02;;;;;;;31.67;17.20;;;7.00;99.90;;;;;;5080004;28;20685;-64
2023/03/19 04:54:51;;;;;;;28.77;16.63;;;6.90;99.90;;;;;;5080444;28;20235;-64
2023/03/19 04:57:40;;;;;;;28.40;16.87;;;6.80;99.90;;;;;;5081570;28;20669;-64
2023/03/19 05:00:31;;;;;;;33.63;16.77;;;6.80;99.90;;;;;;5078853;28;20222;-64
2023/03/19 05:03:22;;;;;;;27.70;16.53;;;6.80;99.90;;;;;;5076140;28;20710;-63
2023/03/19 05:06:10;;;;;;;31.57;17.70;;;6.90;99.90;;;;;;5089486;28;20323;-64
2023/03/19 05:08:59;;;;;;;30.20;17.07;;;6.90;99.90;;;;;;5078902;28;20265;-63
2023/03/19 05:11:48;;;;;;;31.53;17.67;;;6.90;99.90;;;;;;5080869;28;20213;-63
2023/03/19 05:14:40;;;;;;;32.33;17.60;;;6.80;99.90;;;;;;5078681;28;20234;-62
2023/03/19 05:17:36;;;;;;;32.97;17.80;;;6.70;99.90;;;;;;5077787;28;20231;-64
2023/03/19 05:20:36;;;;;;;34.07;17.73;;;6.80;99.90;;;;;;5079482;28;20238;-62
2023/03/19 05:23:28;;;;;;;33.53;17.90;;;6.80;99.90;;;;;;5078181;28;20219;-64
2023/03/19 05:26:28;;;;;;;29.73;17.57;;;6.80;99.90;;;;;;5075952;28;20217;-64
2023/03/19 05:29:47;;;;;;;34.30;18.13;;;6.90;99.90;;;;;;5078060;28;20358;-64
2023/03/19 05:32:45;;;;;;;32.37;17.53;;;6.90;99.90;;;;;;5071595;28;20237;-64
2023/03/19 05:35:44;;;;;;;34.23;17.83;;;6.90;99.90;;;;;;5081560;28;20233;-64
2023/03/19 05:38:41;;;;;;;33.53;18.80;;;6.80;99.90;;;;;;5081327;28;20235;-65
2023/03/19 05:41:36;;;;;;;33.17;18.57;;;7.00;99.90;;;;;;5076524;28;20788;-63
2023/03/19 05:44:27;;;;;;;31.57;17.37;;;6.90;99.90;;;;;;5077790;28;20226;-62
2023/03/19 05:47:21;;;;;;;35.50;18.50;;;7.20;99.90;;;;;;5077473;28;20227;-63
2023/03/19 05:50:17;;;;;;;32.00;17.83;;;7.20;99.90;;;;;;5074533;28;20226;-65
2023/03/19 05:53:24;;;;;;;35.67;18.90;;;7.30;99.90;;;;;;5075270;28;20219;-65
2023/03/19 05:56:47;;;;;;;32.20;18.63;;;7.20;99.90;;;;;;5090584;28;20269;-64
2023/03/19 05:59:56;;;;;;;33.77;18.30;;;7.20;99.90;;;;;;5078746;28;20220;-64
2023/03/19 06:02:54;;;;;;;32.80;18.67;;;7.40;99.90;;;;;;5078124;28;20298;-64
2023/03/19 06:06:00;;;;;;;36.53;18.13;;;7.50;99.90;;;;;;5072588;28;20228;-63
2023/03/19 06:08:57;;;;;;;32.13;17.97;;;7.70;99.90;;;;;;5078117;28;20222;-62
2023/03/19 06:11:54;;;;;;;31.40;17.50;;;7.70;99.90;;;;;;5077866;28;20289;-63
2023/03/19 06:15:10;;;;;;;32.10;18.87;;;7.80;99.90;;;;;;5067598;28;20223;-64
2023/03/19 06:18:20;;;;;;;31.23;17.87;;;7.90;99.90;;;;;;5079468;28;20216;-62
2023/03/19 06:21:10;;;;;;;30.53;17.47;;;7.80;99.90;;;;;;5074057;28;20233;-63
2023/03/19 06:23:59;;;;;;;32.87;17.37;;;8.00;99.90;;;;;;5072824;28;20220;-61
2023/03/19 06:26:54;;;;;;;30.37;17.93;;;8.10;99.90;;;;;;5079812;28;20259;-63
2023/03/19 06:29:45;;;;;;;30.47;17.57;;;8.20;99.90;;;;;;5081995;28;20280;-64
2023/03/19 06:32:41;;;;;;;30.80;18.13;;;8.20;99.90;;;;;;5079397;28;20325;-60
2023/03/19 06:35:32;;;;;;;36.13;18.80;;;8.20;99.90;;;;;;5093545;28;20226;-62
2023/03/19 06:38:22;;;;;;;28.60;16.80;;;8.30;99.90;;;;;;5073753;28;20226;-62
2023/03/19 06:41:11;;;;;;;32.80;17.87;;;8.20;99.90;;;;;;5082622;28;20740;-63
2023/03/19 06:44:01;;;;;;;28.33;17.13;;;8.40;99.90;;;;;;5082038;28;20231;-63
2023/03/19 06:46:50;;;;;;;34.70;18.10;;;8.60;99.90;;;;;;5091764;28;20222;-62
2023/03/19 06:49:39;;;;;;;28.77;16.70;;;8.60;99.90;;;;;;5080965;28;20640;-63
2023/03/19 06:52:27;;;;;;;30.07;18.07;;;8.80;99.90;;;;;;5082779;28;20237;-61
2023/03/19 06:55:19;;;;;;;30.83;17.83;;;8.90;99.90;;;;;;5079754;28;20322;-62
2023/03/19 06:58:08;;;;;;;31.90;17.30;;;9.00;99.90;;;;;;5082687;28;20843;-63
2023/03/19 07:00:57;;;;;;;31.52;17.52;;;9.20;99.90;;;;;;5081311;28;20234;-63
2023/03/19 07:03:46;;;;;;;31.70;17.07;;;9.30;99.90;;;;;;5081778;28;20228;-64
2023/03/19 07:06:35;;;;;;;31.23;16.00;;;9.30;99.90;;;;;;5083506;28;20227;-63
2023/03/19 07:09:24;;;;;;;27.47;16.70;;;9.40;99.90;;;;;;5080584;28;20223;-62
2023/03/19 07:12:14;;;;;;;27.20;16.37;;;9.60;99.90;;;;;;5076749;28;20211;-60
2023/03/19 07:15:03;;;;;;;29.50;16.33;;;9.60;99.90;;;;;;5082435;28;20601;-61
2023/03/19 07:17:52;;;;;;;29.57;16.63;;;9.70;99.90;;;;;;5079842;28;21091;-64
2023/03/19 07:20:41;;;;;;;30.10;16.50;;;9.70;99.90;;;;;;5079950;28;20277;-67
2023/03/19 07:23:30;;;;;;;31.40;17.38;;;9.70;99.90;;;;;;5083018;28;20237;-62
2023/03/19 07:26:19;;;;;;;27.10;15.18;;;9.70;99.90;;;;;;5081311;28;20242;-63
2023/03/19 07:29:10;;;;;;;27.50;16.33;;;9.70;99.90;;;;;;5077613;28;20303;-61
2023/03/19 07:31:59;;;;;;;29.33;15.98;;;9.80;99.90;;;;;;5079216;28;20843;-62
2023/03/19 07:34:49;;;;;;;29.58;15.95;;;9.80;99.90;;;;;;5090914;28;20212;-63
2023/03/19 07:37:37;;;;;;;26.85;15.27;;;9.90;99.90;;;;;;5084310;28;20231;-62
2023/03/19 07:40:26;;;;;;;30.70;16.20;;;9.90;99.90;;;;;;5090767;28;20223;-61
2023/03/19 07:43:15;;;;;;;35.65;16.42;;;10.00;99.90;;;;;;5078087;28;20211;-61
2023/03/19 07:46:06;;;;;;;27.92;16.25;;;10.00;99.90;;;;;;5082328;28;20308;-62
2023/03/19 07:48:55;;;;;;;28.38;16.02;;;10.10;99.90;;;;;;5080181;28;20331;-64
2023/03/19 07:51:44;;;;;;;29.80;15.30;;;10.30;99.90;;;;;;5085130;28;20219;-65
2023/03/19 07:54:33;;;;;;;31.70;16.83;;;10.50;99.90;;;;;;5080604;28;20224;-63
2023/03/19 07:57:24;;;;;;;26.80;15.63;;;10.70;99.90;;;;;;5079635;28;20721;-64
2023/03/19 08:00:13;;;;;;;28.10;16.17;;;11.00;99.90;;;;;;5079631;28;20323;-63
2023/03/19 08:03:06;;;;;;;23.88;14.82;;;11.40;99.90;;;;;;5081741;28;20234;-60
2023/03/19 08:05:55;;;;;;;25.85;14.95;;;12.20;99.90;;;;;;5082004;28;20223;-63
2023/03/19 08:08:44;;;;;;;26.27;15.15;;;12.90;99.90;;;;;;5080196;28;20224;-62
2023/03/19 08:11:33;;;;;;;21.05;14.45;;;13.60;99.90;;;;;;5083074;28;20235;-64
2023/03/19 08:14:22;;;;;;;22.05;14.25;;;14.20;99.50;;;;;;5080179;28;20224;-61
2023/03/19 08:17:11;;;;;;;24.55;14.63;;;14.80;99.60;;;;;;5078847;28;20228;-65
2023/03/19 08:20:03;;;;;;;22.98;15.23;;;15.20;98.40;;;;;;5078760;28;20731;-63
2023/03/19 08:22:52;;;;;;;23.65;15.25;;;15.40;98.10;;;;;;5080987;27;20233;-64
2023/03/19 08:25:41;;;;;;;22.70;14.80;;;15.50;97.70;;;;;;5093699;27;20223;-63
2023/03/19 08:28:30;;;;;;;23.67;14.85;;;15.70;97.40;;;;;;5079837;28;20270;-63
2023/03/19 08:31:19;;;;;;;20.60;14.45;;;15.60;97.30;;;;;;5079481;28;20229;-63
2023/03/19 08:34:09;;;;;;;23.38;14.90;;;15.30;97.50;;;;;;5076091;28;20230;-64
2023/03/19 08:36:59;;;;;;;21.75;14.63;;;15.40;97.50;;;;;;5078086;28;20291;-64
2023/03/19 08:39:51;;;;;;;22.00;14.65;;;15.30;97.40;;;;;;5077321;28;20223;-65
2023/03/19 08:42:41;;;;;;;20.70;14.38;;;15.20;97.50;;;;;;5078550;28;20220;-63
2023/03/19 08:45:32;;;;;;;22.48;15.48;;;15.00;97.80;;;;;;5077798;28;20753;-65
2023/03/19 08:48:21;;;;;;;22.10;13.95;;;14.90;98.00;;;;;;5081796;28;20223;-62
2023/03/19 08:51:10;;;;;;;20.27;13.55;;;15.00;98.10;;;;;;5081088;28;20257;-65
2023/03/19 08:54:01;;;;;;;24.10;14.30;;;15.10;98.20;;;;;;5077399;28;20223;-65
2023/03/19 08:56:49;;;;;;;19.85;13.63;;;15.10;97.80;;;;;;5074885;28;20310;-65
2023/03/19 08:59:39;;;;;;;24.42;15.50;;;15.10;98.30;;;;;;5077456;28;20232;-62
2023/03/19 09:02:28;;;;;;;24.63;14.60;;;15.30;98.40;;;;;;5074452;28;20231;-62
2023/03/19 09:05:19;;;;;;;23.00;14.50;;;15.70;98.60;;;;;;5080709;28;20590;-62
2023/03/19 09:08:08;;;;;;;25.30;14.75;;;16.00;98.20;;;;;;5073197;28;20231;-61
2023/03/19 09:10:59;;;;;;;19.67;12.82;;;16.30;98.20;;;;;;5077415;28;20435;-64
2023/03/19 09:13:48;;;;;;;21.15;12.05;;;16.40;97.40;;;;;;5074480;28;20231;-61
2023/03/19 09:16:36;;;;;;;23.00;12.32;;;16.20;97.20;;;;;;5080573;28;20607;-62
2023/03/19 09:19:25;;;;;;;17.27;11.15;;;15.80;97.10;;;;;;5076167;28;21049;-61
2023/03/19 09:22:14;;;;;;;16.20;10.43;;;15.50;97.20;;;;;;5072180;28;20298;-61
2023/03/19 09:25:04;;;;;;;16.25;11.00;;;15.20;97.10;;;;;;5074469;28;20293;-63
2023/03/19 09:27:54;;;;;;;18.05;10.98;;;15.20;97.30;;;;;;5079338;28;20227;-61
2023/03/19 09:30:46;;;;;;;14.05;10.43;;;15.10;97.50;;;;;;5073661;28;20219;-63
2023/03/19 09:33:35;;;;;;;16.55;10.90;;;15.00;98.10;;;;;;5081367;28;20258;-68
2023/03/19 09:36:25;;;;;;;14.70;10.30;;;15.00;97.50;;;;;;5078292;28;20219;-68
2023/03/19 09:39:14;;;;;;;15.38;10.90;;;15.00;98.20;;;;;;5081706;28;20223;-67
2023/03/19 09:42:20;;;;;;;15.00;9.90;;;15.10;98.30;;;;;;5081601;28;20219;-67
2023/03/19 09:45:14;;;;;;;17.02;9.98;;;15.10;97.90;;;;;;5087120;28;20320;-68
2023/03/19 09:48:07;;;;;;;17.33;10.77;;;15.10;98.00;;;;;;5090866;28;20215;-69
2023/03/19 09:50:57;;;;;;;16.95;10.07;;;15.00;98.00;;;;;;5081860;28;20215;-67
2023/03/19 09:53:53;;;;;;;14.52;10.20;;;15.00;98.10;;;;;;5076859;28;20220;-69
2023/03/19 09:56:44;;;;;;;15.32;10.43;;;15.10;98.00;;;;;;5077329;28;20219;-67
2023/03/19 09:59:33;;;;;;;13.73;10.10;;;15.20;97.90;;;;;;5065419;28;20219;-69
2023/03/19 10:02:40;;;;;;;17.00;9.75;;;15.20;97.70;;;;;;5066993;28;20254;-68
2023/03/19 10:05:42;;;;;;;16.80;9.95;;;15.10;97.60;;;;;;5075647;28;20220;-68
2023/03/19 10:08:45;;;;;;;14.13;9.75;;;15.10;98.10;;;;;;5073030;28;20310;-68
2023/03/19 10:11:49;;;;;;;11.77;8.60;;;15.30;97.70;;;;;;5091339;28;20335;-68
2023/03/19 10:15:03;;;;;;;17.10;9.63;;;15.20;97.50;;;;;;5075324;28;20883;-68
2023/03/19 10:18:03;;;;;;;18.38;10.23;;;15.20;97.50;;;;;;5066900;28;20244;-67
2023/03/19 10:20:55;;;;;;;15.18;9.23;;;15.20;97.20;;;;;;5079641;28;20907;-68
2023/03/19 10:23:47;;;;;;;13.18;9.30;;;15.30;97.50;;;;;;5078438;28;20227;-69
2023/03/19 10:26:36;;;;;;;14.13;9.60;;;15.30;97.40;;;;;;5091084;28;20715;-68
2023/03/19 10:29:25;;;;;;;13.63;9.18;;;15.30;97.00;;;;;;5094549;28;20219;-67
2023/03/19 10:32:18;;;;;;;14.18;9.75;;;15.30;97.10;;;;;;5079758;28;20266;-68
2023/03/19 10:35:18;;;;;;;15.43;9.50;;;15.40;97.00;;;;;;5077357;28;20231;-67
2023/03/19 10:38:21;;;;;;;13.43;9.38;;;15.50;96.80;;;;;;5090980;27;20303;-67
2023/03/19 10:41:32;;;;;;;15.43;9.40;;;15.70;96.60;;;;;;5082221;28;20223;-67
2023/03/19 10:44:31;;;;;;;14.95;9.82;;;15.80;96.60;;;;;;5080453;28;20216;-66
2023/03/19 10:47:21;;;;;;;12.73;8.93;;;15.80;97.00;;;;;;5080075;28;20223;-66
2023/03/19 10:50:17;;;;;;;12.15;8.85;;;15.90;96.60;;;;;;5076188;28;20777;-66
2023/03/19 10:53:22;;;;;;;14.27;8.85;;;15.90;96.50;;;;;;5080475;28;20234;-67
2023/03/19 10:56:19;;;;;;;13.18;9.43;;;15.90;96.20;;;;;;5074080;28;20240;-66
2023/03/19 10:59:22;;;;;;;12.45;9.00;;;15.90;96.60;;;;;;5069373;28;20242;-67
2023/03/19 11:02:18;;;;;;;16.15;9.60;;;15.90;96.90;;;;;;5078233;28;20230;-66
2023/03/19 11:05:19;;;;;;;12.85;8.93;;;15.90;96.90;;;;;;5078079;28;20227;-67
2023/03/19 11:08:21;;;;;;;12.63;8.85;;;15.80;97.00;;;;;;5078689;28;20262;-69
2023/03/19 11:11:32;;;;;;;14.30;9.10;;;15.70;96.60;;;;;;5081636;28;20212;-68
2023/03/19 11:14:25;;;;;;;12.57;8.57;;;15.80;96.30;;;;;;5079100;28;20223;-69
2023/03/19 11:17:26;;;;;;;11.65;8.55;;;15.80;95.90;;;;;;5094518;28;20223;-67
2023/03/19 11:20:22;;;;;;;12.10;8.65;;;16.00;96.30;;;;;;5088000;27;20226;-69
2023/03/19 11:23:16;;;;;;;13.10;8.90;;;16.10;96.00;;;;;;5070300;28;20299;-67
2023/03/19 11:26:05;;;;;;;14.73;8.77;;;16.10;95.80;;;;;;5082019;28;20226;-68
2023/03/19 11:28:56;;;;;;;12.45;8.55;;;16.00;95.90;;;;;;5082480;28;20223;-69
2023/03/19 11:31:52;;;;;;;11.00;8.50;;;15.90;95.80;;;;;;5080589;28;20227;-67
2023/03/19 11:34:47;;;;;;;12.65;8.95;;;15.90;95.90;;;;;;5078803;28;20314;-69
2023/03/19 11:37:50;;;;;;;12.52;8.55;;;15.80;95.90;;;;;;5079602;28;20242;-68
2023/03/19 11:40:45;;;;;;;10.70;8.07;;;15.90;95.60;;;;;;5083023;28;20425;-69
2023/03/19 11:43:50;;;;;;;11.68;7.82;;;15.80;95.50;;;;;;5082503;28;20223;-68
2023/03/19 11:46:45;;;;;;;12.77;7.57;;;15.90;95.60;;;;;;5082155;28;20243;-68
2023/03/19 11:49:46;;;;;;;12.63;8.88;;;16.00;95.50;;;;;;5081491;28;20231;-68
2023/03/19 11:52:41;;;;;;;13.48;8.95;;;16.10;95.50;;;;;;5083556;28;20227;-67
2023/03/19 11:55:35;;;;;;;12.05;8.70;;;16.10;95.30;;;;;;5082133;28;20223;-67
2023/03/19 11:58:52;;;;;;;10.80;8.38;;;16.20;95.40;;;;;;5081567;28;20239;-66
2023/03/19 12:02:22;;;;;;;15.90;8.80;;;16.20;95.60;;;;;;5093266;28;20231;-68
2023/03/19 12:05:25;;;;;;;13.77;8.88;;;16.10;95.40;;;;;;5076490;28;20223;-69
2023/03/19 12:08:27;;;;;;;11.85;8.32;;;16.10;95.10;;;;;;5065762;28;20223;-67
2023/03/19 12:11:21;;;;;;;13.48;8.07;;;16.10;95.20;;;;;;5072562;28;20235;-68
2023/03/19 12:14:25;;;;;;;12.98;8.35;;;16.10;95.30;;;;;;5094354;28;20574;-69
2023/03/19 12:17:40;;;;;;;12.93;9.05;;;16.10;95.10;;;;;;5084366;28;20223;-66
2023/03/19 12:20:37;;;;;;;11.75;8.82;;;16.00;94.70;;;;;;5074754;28;20334;-66
2023/03/19 12:23:37;;;;;;;11.50;8.80;;;16.00;95.30;;;;;;5079680;28;20222;-65
2023/03/19 12:26:39;;;;;;;14.05;8.52;;;16.10;94.90;;;;;;5082131;28;20223;-68
2023/03/19 12:29:40;;;;;;;13.30;8.35;;;16.10;94.90;;;;;;5081490;28;20226;-66
2023/03/19 12:32:45;;;;;;;11.43;8.50;;;16.20;94.60;;;;;;5085429;28;20245;-67
2023/03/19 12:35:35;;;;;;;14.45;8.60;;;16.20;94.70;;;;;;5082307;28;20843;-67
2023/03/19 12:38:31;;;;;;;11.95;8.32;;;16.00;94.60;;;;;;5107049;27;20293;-67
2023/03/19 12:41:23;;;;;;;16.65;10.02;;;16.10;95.00;;;;;;5078881;28;20223;-67
2023/03/19 12:44:17;;;;;;;10.73;8.45;;;16.20;95.20;;;;;;5084845;28;20247;-67
2023/03/19 12:47:13;;;;;;;12.27;8.65;;;16.40;94.80;;;;;;5082242;28;20231;-67
2023/03/19 12:50:04;;;;;;;14.68;9.20;;;16.30;94.10;;;;;;5071688;28;20289;-67
2023/03/19 12:52:57;;;;;;;11.25;8.50;;;16.30;94.50;;;;;;5066717;28;20243;-69
2023/03/19 12:55:51;;;;;;;13.18;8.60;;;16.30;94.10;;;;;;5070937;28;20377;-65
2023/03/19 12:58:51;;;;;;;10.13;7.68;;;16.10;93.80;;;;;;5081667;28;20231;-68
2023/03/19 13:01:44;;;;;;;11.00;8.07;;;16.20;94.10;;;;;;5078275;28;20736;-67
2023/03/19 13:04:40;;;;;;;13.60;8.40;;;16.30;94.10;;;;;;5087022;28;20241;-69
2023/03/19 13:07:36;;;;;;;14.43;8.32;;;16.20;93.60;;;;;;5079812;28;20238;-68
2023/03/19 13:10:26;;;;;;;15.07;7.88;;;16.10;93.60;;;;;;5075819;28;20871;-68
2023/03/19 13:13:28;;;;;;;13.77;9.27;;;16.20;94.10;;;;;;5077729;28;20234;-69
2023/03/19 13:16:31;;;;;;;12.93;8.63;;;16.30;93.90;;;;;;5077022;28;20230;-66
2023/03/19 13:19:30;;;;;;;13.43;8.32;;;16.30;94.10;;;;;;5075524;28;20227;-68
2023/03/19 13:22:24;;;;;;;10.30;7.50;;;16.30;93.80;;;;;;5081659;27;20223;-68
2023/03/19 13:25:17;;;;;;;12.55;8.40;;;16.20;93.90;;;;;;5062060;28;20231;-67
2023/03/19 13:28:10;;;;;;;13.38;8.63;;;16.20;93.80;;;;;;5090085;27;20244;-67
2023/03/19 13:31:03;;;;;;;11.55;8.13;;;16.00;93.80;;;;;;5078936;28;20218;-69
2023/03/19 13:34:00;;;;;;;13.50;9.00;;;15.80;94.10;;;;;;5072666;28;20226;-66
2023/03/19 13:36:54;;;;;;;12.15;8.20;;;16.00;94.10;;;;;;5092641;28;20219;-68
2023/03/19 13:39:47;;;;;;;13.48;7.72;;;15.90;93.80;;;;;;5076558;28;20246;-67
2023/03/19 13:42:40;;;;;;;13.60;9.02;;;16.00;93.90;;;;;;5068956;28;20734;-69
2023/03/19 13:45:34;;;;;;;20.15;8.15;;;16.00;93.90;;;;;;5087714;28;20254;-68
2023/03/19 13:48:35;;;;;;;11.85;8.77;;;16.00;93.90;;;;;;5079513;28;20258;-66
2023/03/19 13:51:28;;;;;;;13.70;9.00;;;15.90;93.80;;;;;;5075636;28;20220;-68
2023/03/19 13:54:22;;;;;;;11.77;8.20;;;16.00;94.30;;;;;;5075749;28;20219;-64
2023/03/19 13:57:34;;;;;;;12.98;8.43;;;16.00;94.50;;;;;;5071582;28;20220;-70
2023/03/19 14:00:58;;;;;;;10.65;8.25;;;15.90;93.70;;;;;;5073530;28;20299;-67
2023/03/19 14:03:54;;;;;;;14.32;7.32;;;15.90;93.90;;;;;;5067799;28;20675;-69
2023/03/19 14:06:46;;;;;;;10.80;7.95;;;16.00;93.90;;;;;;5079080;28;20227;-68
2023/03/19 14:09:38;;;;;;;9.73;7.97;;;15.90;94.00;;;;;;5080069;28;20288;-67
2023/03/19 14:12:35;;;;;;;10.85;8.18;;;15.80;93.70;;;;;;5074255;28;20223;-68
2023/03/19 14:15:27;;;;;;;12.52;8.68;;;15.80;94.00;;;;;;5072011;28;20231;-67
2023/03/19 14:18:20;;;;;;;11.50;7.82;;;15.80;93.80;;;;;;5065694;28;20227;-69
2023/03/19 14:21:13;;;;;;;10.00;7.22;;;15.90;94.00;;;;;;5090364;28;20349;-71
2023/03/19 14:24:28;;;;;;;13.60;7.80;;;15.90;93.60;;;;;;5078325;28;20594;-67
2023/03/19 14:27:45;;;;;;;12.02;8.00;;;15.80;93.20;;;;;;5076885;28;20252;-66
2023/03/19 14:30:39;;;;;;;11.20;7.63;;;15.90;93.30;;;;;;5080486;28;20231;-67
2023/03/19 14:33:39;;;;;;;11.45;8.13;;;15.90;94.00;;;;;;5091134;28;20231;-68
2023/03/19 14:36:30;;;;;;;13.07;7.95;;;16.00;93.70;;;;;;5064676;28;20222;-67
2023/03/19 14:39:23;;;;;;;10.63;8.07;;;16.00;93.80;;;;;;5077782;28;20219;-68
2023/03/19 14:42:19;;;;;;;12.80;7.85;;;15.90;93.50;;;;;;5075642;28;20245;-68
2023/03/19 14:45:41;;;;;;;11.88;8.63;;;15.90;93.30;;;;;;5074784;28;20339;-68
2023/03/19 14:49:10;;;;;;;12.90;8.35;;;15.80;93.30;;;;;;5067001;28;20219;-66
2023/03/19 14:52:03;;;;;;;12.02;7.40;;;15.70;93.50;;;;;;5074593;28;20224;-68
2023/03/19 14:54:55;;;;;;;11.75;8.00;;;15.70;94.00;;;;;;5074269;28;20231;-66